createdAt,value
2023-02-11T00:00:49.459Z,26.70
2023-02-11T00:01:49.286Z,26.20
2023-02-11T00:02:49.188Z,27.40
2023-02-11T00:03:49.340Z,27.20
2023-02-11T00:04:49.174Z,26.50
2023-02-11T00:05:49.548Z,26.30
2023-02-11T00:06:49.138Z,27.30
2023-02-11T00:07:49.156Z,27.70
2023-02-11T00:08:49.147Z,26.60
2023-02-11T00:09:49.121Z,25.60
2023-02-11T00:10:49.353Z,27.60
2023-02-11T00:11:49.116Z,27.20
2023-02-11T00:12:49.057Z,27.00
2023-02-11T00:13:49.090Z,26.20
2023-02-11T00:14:49.022Z,26.50
2023-02-11T00:15:49.418Z,26.90
2023-02-11T00:16:49.070Z,26.90
2023-02-11T00:17:49.011Z,26.40
2023-02-11T00:18:49.000Z,27.90
2023-02-11T00:19:49.014Z,27.40
2023-02-11T00:20:48.960Z,26.30
2023-02-11T00:21:48.966Z,27.40
2023-02-11T00:22:48.930Z,26.80
2023-02-11T00:23:48.960Z,27.00
2023-02-11T00:24:48.922Z,27.80
2023-02-11T00:25:49.246Z,27.30
2023-02-11T00:26:48.879Z,26.80
2023-02-11T00:27:48.902Z,26.50
2023-02-11T00:28:48.841Z,27.80
2023-02-11T00:29:48.878Z,26.60
2023-02-11T00:30:48.892Z,26.00
2023-02-11T00:31:48.982Z,25.90
2023-02-11T00:32:48.802Z,26.10
2023-02-11T00:33:48.816Z,26.70
2023-02-11T00:34:48.772Z,27.10
2023-02-11T00:35:49.232Z,26.10
2023-02-11T00:36:48.741Z,25.80
2023-02-11T00:37:48.765Z,26.20
2023-02-11T00:38:48.713Z,25.70
2023-02-11T00:39:48.736Z,25.70
2023-02-11T00:40:48.704Z,26.80
2023-02-11T00:41:48.697Z,25.90
2023-02-11T00:42:48.681Z,25.10
2023-02-11T00:43:48.680Z,25.10
2023-02-11T00:44:48.660Z,25.20
2023-02-11T00:45:49.033Z,25.40
2023-02-11T00:46:48.633Z,26.30
2023-02-11T00:47:48.626Z,24.90
2023-02-11T00:48:48.599Z,25.80
2023-02-11T00:49:48.587Z,24.40
2023-02-11T00:50:48.544Z,25.50
2023-02-11T00:51:48.568Z,24.60
2023-02-11T00:52:48.540Z,24.60
2023-02-11T00:53:48.529Z,24.10
2023-02-11T00:54:48.511Z,24.70
2023-02-11T00:55:48.968Z,24.90
2023-02-11T00:56:48.508Z,24.90
2023-02-11T00:57:48.496Z,25.70
2023-02-11T00:58:48.440Z,24.70
2023-02-11T00:59:48.477Z,25.80
2023-02-11T01:00:48.419Z,25.50
2023-02-11T01:01:48.520Z,24.10
2023-02-11T01:02:48.392Z,24.70
2023-02-11T01:03:48.412Z,24.70
2023-02-11T01:04:48.460Z,24.70
2023-02-11T01:05:48.830Z,25.20
2023-02-11T01:06:48.344Z,25.40
2023-02-11T01:07:48.364Z,24.10
2023-02-11T01:08:48.334Z,25.20
2023-02-11T01:09:48.333Z,25.50
2023-02-11T01:10:48.295Z,25.50
2023-02-11T01:11:48.347Z,25.80
2023-02-11T01:12:48.267Z,24.50
2023-02-11T01:13:48.274Z,24.90
2023-02-11T01:14:48.246Z,25.80
2023-02-11T01:15:48.411Z,25.30
2023-02-11T01:16:48.243Z,25.70
2023-02-11T01:17:48.223Z,26.80
2023-02-11T01:18:48.204Z,25.80
2023-02-11T01:19:48.215Z,25.80
2023-02-11T01:20:48.175Z,26.30
2023-02-11T01:21:48.169Z,25.70
2023-02-11T01:22:48.133Z,25.70
2023-02-11T01:23:48.151Z,25.20
2023-02-11T01:24:48.122Z,26.10
2023-02-11T01:25:48.430Z,25.80
2023-02-11T01:26:48.096Z,25.90
2023-02-11T01:27:48.103Z,26.60
2023-02-11T01:28:48.072Z,25.60
2023-02-11T01:29:48.065Z,26.00
2023-02-11T01:30:48.099Z,27.70
2023-02-11T01:31:48.106Z,25.60
2023-02-11T01:32:48.046Z,25.20
2023-02-11T01:33:48.055Z,25.50
2023-02-11T01:34:47.986Z,25.50
2023-02-11T01:35:48.307Z,26.20
2023-02-11T01:36:47.960Z,25.80
2023-02-11T01:37:47.965Z,26.80
2023-02-11T01:38:47.962Z,25.50
2023-02-11T01:39:47.964Z,26.00
2023-02-11T01:40:47.909Z,26.70
2023-02-11T01:41:47.912Z,26.50
2023-02-11T01:42:50.039Z,26.40
2023-02-11T01:43:47.918Z,25.80
2023-02-11T01:44:47.852Z,25.10
2023-02-11T01:45:48.099Z,26.70
2023-02-11T01:46:47.884Z,25.30
2023-02-11T01:47:47.842Z,25.40
2023-02-11T01:48:47.886Z,24.80
2023-02-11T01:49:47.816Z,25.10
2023-02-11T01:50:47.804Z,26.40
2023-02-11T01:51:47.791Z,25.40
2023-02-11T01:52:47.766Z,25.60
2023-02-11T01:53:47.839Z,25.80
2023-02-11T01:54:47.754Z,25.40
2023-02-11T01:55:48.087Z,25.00
2023-02-11T01:56:47.714Z,25.50
2023-02-11T01:57:47.711Z,25.30
2023-02-11T01:58:47.695Z,26.50
2023-02-11T01:59:47.698Z,25.20
2023-02-11T02:00:47.672Z,25.50
2023-02-11T02:01:47.697Z,25.70
2023-02-11T02:02:47.616Z,25.80
2023-02-11T02:03:47.698Z,26.40
2023-02-11T02:04:47.584Z,25.90
2023-02-11T02:05:48.151Z,26.30
2023-02-11T02:06:47.570Z,26.90
2023-02-11T02:07:47.575Z,26.00
2023-02-11T02:08:47.530Z,26.00
2023-02-11T02:09:47.573Z,25.20
2023-02-11T02:10:47.520Z,27.30
2023-02-11T02:11:47.520Z,27.10
2023-02-11T02:12:47.499Z,26.30
2023-02-11T02:13:47.495Z,27.40
2023-02-11T02:14:47.472Z,25.90
2023-02-11T02:15:47.601Z,27.30
2023-02-11T02:16:47.441Z,27.30
2023-02-11T02:17:47.451Z,27.50
2023-02-11T02:18:47.398Z,27.10
2023-02-11T02:19:47.441Z,28.00
2023-02-11T02:20:47.376Z,27.30
2023-02-11T02:21:47.411Z,27.10
2023-02-11T02:22:47.363Z,28.00
2023-02-11T02:23:47.401Z,27.80
2023-02-11T02:24:47.318Z,28.30
2023-02-11T02:25:47.476Z,28.80
2023-02-11T02:26:47.319Z,28.00
2023-02-11T02:27:47.321Z,27.90
2023-02-11T02:28:47.275Z,29.00
2023-02-11T02:29:47.275Z,28.80
2023-02-11T02:30:47.320Z,29.20
2023-02-11T02:31:47.471Z,27.60
2023-02-11T02:32:47.238Z,29.00
2023-02-11T02:33:47.219Z,28.20
2023-02-11T02:34:47.210Z,28.00
2023-02-11T02:35:47.261Z,28.10
2023-02-11T02:36:47.209Z,28.80
2023-02-11T02:37:47.198Z,30.30
2023-02-11T02:38:47.167Z,29.10
2023-02-11T02:39:47.128Z,29.30
2023-02-11T02:40:47.121Z,28.90
2023-02-11T02:41:47.089Z,27.80
2023-02-11T02:42:47.130Z,28.50
2023-02-11T02:43:47.067Z,28.90
2023-02-11T02:44:47.086Z,28.10
2023-02-11T02:45:47.052Z,29.10
2023-02-11T02:46:47.138Z,28.40
2023-02-11T02:47:47.029Z,28.60
2023-02-11T02:48:47.054Z,28.10
2023-02-11T02:49:46.994Z,28.70
2023-02-11T02:50:47.016Z,29.10
2023-02-11T02:51:46.994Z,29.00
2023-02-11T02:52:46.979Z,29.10
2023-02-11T02:53:46.936Z,28.90
2023-02-11T02:54:46.973Z,30.70
2023-02-11T02:55:46.918Z,29.70
2023-02-11T02:56:46.921Z,30.20
2023-02-11T02:57:46.892Z,29.90
2023-02-11T02:58:47.404Z,30.40
2023-02-11T02:59:46.902Z,30.60
2023-02-11T03:00:46.905Z,28.20
2023-02-11T03:01:46.834Z,30.60
2023-02-11T03:02:46.849Z,30.20
2023-02-11T03:03:46.868Z,30.00
2023-02-11T03:04:46.855Z,30.90
2023-02-11T03:05:46.789Z,30.50
2023-02-11T03:06:46.796Z,31.20
2023-02-11T03:07:46.755Z,31.00
2023-02-11T03:08:46.786Z,31.70
2023-02-11T03:09:46.802Z,32.90
2023-02-11T03:10:46.741Z,30.70
2023-02-11T03:11:46.720Z,31.10
2023-02-11T03:12:46.718Z,32.40
2023-02-11T03:13:46.685Z,31.60
2023-02-11T03:14:46.699Z,31.00
2023-02-11T03:15:46.771Z,30.70
2023-02-11T03:16:46.668Z,31.10
2023-02-11T03:17:46.629Z,30.30
2023-02-11T03:18:46.651Z,30.30
2023-02-11T03:19:46.599Z,30.80
2023-02-11T03:20:46.633Z,31.00
2023-02-11T03:21:46.592Z,31.30
2023-02-11T03:22:46.575Z,31.20
2023-02-11T03:23:46.541Z,32.30
2023-02-11T03:24:46.569Z,30.90
2023-02-11T03:25:46.536Z,30.90
2023-02-11T03:26:46.560Z,29.40
2023-02-11T03:27:46.495Z,31.20
2023-02-11T03:28:46.510Z,29.50
2023-02-11T03:29:46.488Z,30.50
2023-02-11T03:30:46.554Z,29.80
2023-02-11T03:31:46.565Z,30.80
2023-02-11T03:32:46.470Z,30.10
2023-02-11T03:33:46.419Z,29.10
2023-02-11T03:34:46.421Z,29.40
2023-02-11T03:35:46.408Z,30.80
2023-02-11T03:36:46.404Z,29.90
2023-02-11T03:37:46.395Z,30.30
2023-02-11T03:38:46.370Z,30.40
2023-02-11T03:39:46.343Z,31.10
2023-02-11T03:40:46.384Z,30.60
2023-02-11T03:41:46.336Z,30.00
2023-02-11T03:42:46.339Z,29.90
2023-02-11T03:43:46.288Z,30.10
2023-02-11T03:44:46.294Z,30.90
2023-02-11T03:45:46.308Z,29.90
2023-02-11T03:46:46.303Z,31.70
2023-02-11T03:47:46.240Z,29.20
2023-02-11T03:48:46.257Z,30.00
2023-02-11T03:49:46.205Z,30.70
2023-02-11T03:50:46.248Z,29.50
2023-02-11T03:51:46.180Z,29.60
2023-02-11T03:52:46.190Z,28.10
2023-02-11T03:53:46.169Z,28.40
2023-02-11T03:54:46.165Z,29.20
2023-02-11T03:55:46.129Z,28.60
2023-02-11T03:56:46.166Z,29.50
2023-02-11T03:57:46.109Z,28.10
2023-02-11T03:58:46.125Z,29.20
2023-02-11T03:59:46.110Z,29.30
2023-02-11T04:00:46.119Z,28.80
2023-02-11T04:01:46.083Z,29.30
2023-02-11T04:02:46.061Z,28.90
2023-02-11T04:03:46.126Z,28.50
2023-02-11T04:04:46.014Z,27.80
2023-02-11T04:05:46.012Z,28.30
2023-02-11T04:06:46.003Z,28.60
2023-02-11T04:07:45.988Z,29.10
2023-02-11T04:08:46.000Z,28.90
2023-02-11T04:09:46.005Z,29.90
2023-02-11T04:10:45.939Z,28.70
2023-02-11T04:11:45.954Z,28.00
2023-02-11T04:12:45.905Z,29.10
2023-02-11T04:13:45.943Z,29.60
2023-02-11T04:14:45.882Z,30.40
2023-02-11T04:15:48.543Z,29.80
2023-02-11T04:16:45.929Z,30.40
2023-02-11T04:17:45.867Z,29.90
2023-02-11T04:18:45.820Z,30.10
2023-02-11T04:19:45.858Z,29.60
2023-02-11T04:20:45.795Z,29.90
2023-02-11T04:21:45.832Z,29.40
2023-02-11T04:22:45.769Z,29.70
2023-02-11T04:23:45.782Z,30.30
2023-02-11T04:24:45.772Z,29.60
2023-02-11T04:25:45.777Z,30.40
2023-02-11T04:26:45.746Z,30.80
2023-02-11T04:27:45.757Z,30.70
2023-02-11T04:28:45.703Z,30.00
2023-02-11T04:29:45.707Z,29.60
2023-02-11T04:30:45.761Z,30.80
2023-02-11T04:31:45.775Z,30.50
2023-02-11T04:32:45.671Z,30.00
2023-02-11T04:33:45.658Z,30.40
2023-02-11T04:34:45.632Z,31.10
2023-02-11T04:35:45.647Z,31.00
2023-02-11T04:36:45.628Z,31.30
2023-02-11T04:37:45.645Z,31.20
2023-02-11T04:38:45.590Z,30.70
2023-02-11T04:39:45.591Z,30.90
2023-02-11T04:40:45.547Z,31.70
2023-02-11T04:41:45.566Z,31.20
2023-02-11T04:42:45.525Z,31.10
2023-02-11T04:43:45.519Z,30.70
2023-02-11T04:44:45.477Z,30.70
2023-02-11T04:45:45.555Z,30.80
2023-02-11T04:46:45.476Z,31.80
2023-02-11T04:47:45.513Z,32.20
2023-02-11T04:48:45.466Z,32.50
2023-02-11T04:49:45.465Z,31.10
2023-02-11T04:50:45.428Z,32.30
2023-02-11T04:51:48.223Z,32.50
2023-02-11T04:52:45.395Z,33.40
2023-02-11T04:53:45.427Z,32.60
2023-02-11T04:54:45.351Z,33.40
2023-02-11T04:55:45.384Z,31.90
2023-02-11T04:56:45.334Z,32.50
2023-02-11T04:57:45.349Z,31.70
2023-02-11T04:58:45.321Z,31.80
2023-02-11T04:59:45.323Z,31.10
2023-02-11T05:00:45.277Z,31.00
2023-02-11T05:01:45.307Z,31.30
2023-02-11T05:02:45.252Z,30.90
2023-02-11T05:03:45.301Z,31.40
2023-02-11T05:04:45.253Z,31.80
2023-02-11T05:05:45.235Z,31.00
2023-02-11T05:06:45.198Z,33.20
2023-02-11T05:07:45.214Z,31.50
2023-02-11T05:08:45.179Z,31.80
2023-02-11T05:09:45.216Z,31.40
2023-02-11T05:10:45.162Z,32.90
2023-02-11T05:11:45.192Z,31.10
2023-02-11T05:12:45.165Z,32.10
2023-02-11T05:13:45.141Z,32.50
2023-02-11T05:14:45.112Z,30.80
2023-02-11T05:15:45.112Z,31.60
2023-02-11T05:16:45.094Z,32.70
2023-02-11T05:17:45.089Z,32.10
2023-02-11T05:18:45.062Z,31.80
2023-02-11T05:19:45.043Z,32.20
2023-02-11T05:20:45.034Z,30.70
2023-02-11T05:22:00.255Z,31.50
2023-02-11T05:22:44.997Z,31.30
2023-02-11T05:23:45.017Z,31.40
2023-02-11T05:24:44.961Z,32.20
2023-02-11T05:25:44.987Z,30.20
2023-02-11T05:26:44.941Z,32.60
2023-02-11T05:27:45.009Z,31.00
2023-02-11T05:28:44.922Z,31.80
2023-02-11T05:29:44.925Z,32.60
2023-02-11T05:30:44.905Z,31.40
2023-02-11T05:31:44.928Z,32.40
2023-02-11T05:32:44.944Z,31.20
2023-02-11T05:33:44.866Z,32.60
2023-02-11T05:34:44.835Z,32.80
2023-02-11T05:35:44.847Z,32.10
2023-02-11T05:36:44.818Z,31.80
2023-02-11T05:37:44.844Z,31.40
2023-02-11T05:38:44.783Z,31.10
2023-02-11T05:39:44.800Z,31.50
2023-02-11T05:40:44.758Z,32.20
2023-02-11T05:41:44.767Z,31.80
2023-02-11T05:42:44.736Z,30.90
2023-02-11T05:43:44.770Z,31.60
2023-02-11T05:44:44.698Z,30.90
2023-02-11T05:45:44.716Z,31.30
2023-02-11T05:46:44.713Z,31.70
2023-02-11T05:47:44.697Z,30.10
2023-02-11T05:48:44.647Z,31.00
2023-02-11T05:49:44.684Z,31.40
2023-02-11T05:50:44.626Z,30.20
2023-02-11T05:51:44.625Z,31.00
2023-02-11T05:52:44.599Z,29.80
2023-02-11T05:53:44.609Z,30.70
2023-02-11T05:54:44.583Z,29.30
2023-02-11T05:55:44.574Z,30.40
2023-02-11T05:56:45.093Z,29.90
2023-02-11T05:57:44.571Z,30.10
2023-02-11T05:58:44.538Z,30.60
2023-02-11T05:59:44.526Z,30.20
2023-02-11T06:00:44.507Z,30.10
2023-02-11T06:01:44.514Z,29.70
2023-02-11T06:02:44.574Z,29.60
2023-02-11T06:03:44.570Z,29.00
2023-02-11T06:04:44.437Z,29.40
2023-02-11T06:05:44.467Z,28.30
2023-02-11T06:06:44.429Z,30.30
2023-02-11T06:07:44.412Z,29.20
2023-02-11T06:08:44.410Z,28.90
2023-02-11T06:09:44.406Z,29.10
2023-02-11T06:10:44.500Z,29.40
2023-02-11T06:11:44.380Z,29.30
2023-02-11T06:12:44.337Z,28.20
2023-02-11T06:13:44.356Z,29.90
2023-02-11T06:14:44.347Z,28.30
2023-02-11T06:15:44.387Z,28.60
2023-02-11T06:16:44.283Z,29.20
2023-02-11T06:17:44.293Z,28.40
2023-02-11T06:18:44.251Z,29.70
2023-02-11T06:19:44.264Z,29.00
2023-02-11T06:20:44.245Z,29.90
2023-02-11T06:21:44.715Z,28.30
2023-02-11T06:22:44.226Z,29.30
2023-02-11T06:23:44.211Z,29.30
2023-02-11T06:25:00.344Z,28.70
2023-02-11T06:25:44.222Z,29.70
2023-02-11T06:26:44.173Z,29.50
2023-02-11T06:27:44.157Z,29.80
2023-02-11T06:28:44.171Z,30.60
2023-02-11T06:29:44.136Z,29.90
2023-02-11T06:30:44.133Z,30.00
2023-02-11T06:31:44.255Z,30.60
2023-02-11T06:32:45.741Z,29.90
2023-02-11T06:33:44.116Z,29.60
2023-02-11T06:34:44.034Z,31.00
2023-02-11T06:35:44.053Z,28.90
2023-02-11T06:36:44.020Z,29.30
2023-02-11T06:37:44.074Z,29.30
2023-02-11T06:38:44.055Z,30.80
2023-02-11T06:39:44.005Z,29.40
2023-02-11T06:40:43.973Z,30.10
2023-02-11T06:41:44.020Z,30.40
2023-02-11T06:42:43.941Z,30.50
2023-02-11T06:43:43.952Z,30.80
2023-02-11T06:44:43.923Z,31.70
2023-02-11T06:45:43.983Z,31.70
2023-02-11T06:46:43.958Z,31.30
2023-02-11T06:47:43.918Z,32.00
2023-02-11T06:48:45.011Z,33.50
2023-02-11T06:49:43.893Z,33.30
2023-02-11T06:50:43.834Z,33.90
2023-02-11T06:51:43.871Z,33.90
2023-02-11T06:52:43.831Z,33.10
2023-02-11T06:53:43.822Z,34.10
2023-02-11T06:54:43.824Z,34.70
2023-02-11T06:55:43.796Z,36.40
2023-02-11T06:56:43.805Z,33.40
2023-02-11T06:57:43.779Z,33.50
2023-02-11T06:58:43.731Z,35.70
2023-02-11T06:59:43.761Z,34.70
2023-02-11T07:00:43.725Z,33.30
2023-02-11T07:01:43.742Z,34.30
2023-02-11T07:02:43.698Z,34.70
2023-02-11T07:03:43.699Z,34.40
2023-02-11T07:04:43.666Z,34.10
2023-02-11T07:05:43.668Z,33.30
2023-02-11T07:06:43.632Z,35.80
2023-02-11T07:07:43.661Z,35.00
2023-02-11T07:08:43.615Z,35.70
2023-02-11T07:09:43.661Z,36.10
2023-02-11T07:10:43.590Z,34.90
2023-02-11T07:11:43.575Z,35.50
2023-02-11T07:12:43.611Z,35.50
2023-02-11T07:13:43.588Z,36.80
2023-02-11T07:14:43.520Z,35.90
2023-02-11T07:15:43.617Z,37.80
2023-02-11T07:16:43.500Z,34.10
2023-02-11T07:17:43.533Z,33.40
2023-02-11T07:18:43.467Z,35.50
2023-02-11T07:19:43.489Z,33.90
2023-02-11T07:20:43.478Z,34.80
2023-02-11T07:21:43.454Z,34.10
2023-02-11T07:22:43.436Z,34.40
2023-02-11T07:23:43.458Z,34.40
2023-02-11T07:24:43.395Z,35.90
2023-02-11T07:25:43.423Z,35.40
2023-02-11T07:26:43.370Z,34.40
2023-02-11T07:27:43.391Z,35.40
2023-02-11T07:28:43.336Z,34.80
2023-02-11T07:29:43.370Z,35.90
2023-02-11T07:30:43.319Z,35.10
2023-02-11T07:31:43.484Z,34.50
2023-02-11T07:32:43.313Z,35.20
2023-02-11T07:33:43.292Z,36.60
2023-02-11T07:34:43.319Z,38.90
2023-02-11T07:35:43.271Z,44.60
2023-02-11T07:36:43.222Z,40.50
2023-02-11T07:37:43.252Z,38.40
2023-02-11T07:38:43.228Z,38.60
2023-02-11T07:39:43.264Z,38.40
2023-02-11T07:40:43.194Z,39.10
2023-02-11T07:41:43.183Z,42.80
2023-02-11T07:42:43.152Z,38.00
2023-02-11T07:43:43.160Z,40.10
2023-02-11T07:44:43.146Z,37.20
2023-02-11T07:45:43.155Z,38.70
2023-02-11T07:46:43.173Z,38.50
2023-02-11T07:47:43.130Z,38.30
2023-02-11T07:48:43.080Z,38.40
2023-02-11T07:49:43.091Z,36.10
2023-02-11T07:50:43.083Z,36.20
2023-02-11T07:51:43.083Z,39.60
2023-02-11T07:52:43.017Z,36.20
2023-02-11T07:53:43.055Z,37.60
2023-02-11T07:54:42.994Z,35.50
2023-02-11T07:55:43.041Z,37.00
2023-02-11T07:56:42.967Z,35.50
2023-02-11T07:57:42.977Z,36.70
2023-02-11T07:58:42.992Z,36.30
2023-02-11T07:59:42.961Z,35.90
2023-02-11T08:00:42.990Z,36.00
2023-02-11T08:01:43.025Z,35.80
2023-02-11T08:02:42.898Z,35.40
2023-02-11T08:03:42.937Z,35.00
2023-02-11T08:04:42.877Z,35.30
2023-02-11T08:05:42.891Z,35.50
2023-02-11T08:06:42.847Z,34.50
2023-02-11T08:07:42.845Z,35.30
2023-02-11T08:08:42.822Z,37.60
2023-02-11T08:09:42.846Z,35.50
2023-02-11T08:10:42.850Z,34.50
2023-02-11T08:11:42.810Z,33.80
2023-02-11T08:12:42.765Z,36.00
2023-02-11T08:13:42.764Z,37.20
2023-02-11T08:14:42.756Z,36.80
2023-02-11T08:15:42.741Z,38.40
2023-02-11T08:16:42.875Z,36.30
2023-02-11T08:17:42.710Z,35.90
2023-02-11T08:18:42.744Z,37.10
2023-02-11T08:19:42.711Z,37.20
2023-02-11T08:20:42.682Z,35.10
2023-02-11T08:21:42.647Z,35.10
2023-02-11T08:22:42.666Z,34.50
2023-02-11T08:23:42.601Z,35.20
2023-02-11T08:24:42.676Z,34.90
2023-02-11T08:25:42.593Z,36.30
2023-02-11T08:26:42.600Z,36.50
2023-02-11T08:27:42.564Z,35.70
2023-02-11T08:28:42.596Z,41.40
2023-02-11T08:29:42.557Z,36.80
2023-02-11T08:30:42.575Z,37.50
2023-02-11T08:31:42.695Z,39.20
2023-02-11T08:32:42.515Z,39.30
2023-02-11T08:33:42.474Z,37.20
2023-02-11T08:34:42.512Z,35.90
2023-02-11T08:35:42.460Z,37.20
2023-02-11T08:36:42.468Z,36.90
2023-02-11T08:37:42.469Z,34.50
2023-02-11T08:38:42.450Z,33.30
2023-02-11T08:39:42.429Z,32.20
2023-02-11T08:40:42.440Z,36.40
2023-02-11T08:41:42.372Z,35.40
2023-02-11T08:42:42.422Z,33.30
2023-02-11T08:43:42.353Z,32.60
2023-02-11T08:44:42.394Z,32.10
2023-02-11T08:45:42.401Z,32.20
2023-02-11T08:46:42.458Z,32.20
2023-02-11T08:47:42.321Z,33.20
2023-02-11T08:48:42.315Z,32.70
2023-02-11T08:49:42.322Z,31.80
2023-02-11T08:50:42.305Z,29.80
2023-02-11T08:51:42.274Z,32.10
2023-02-11T08:52:42.286Z,31.50
2023-02-11T08:53:42.241Z,30.90
2023-02-11T08:54:42.292Z,31.50
2023-02-11T08:55:42.214Z,32.20
2023-02-11T08:56:42.232Z,31.60
2023-02-11T08:57:42.181Z,33.10
2023-02-11T08:58:42.214Z,29.60
2023-02-11T08:59:42.150Z,31.60
2023-02-11T09:00:42.227Z,30.70
2023-02-11T09:01:42.278Z,31.70
2023-02-11T09:02:42.221Z,30.10
2023-02-11T09:03:42.121Z,29.40
2023-02-11T09:04:42.125Z,28.90
2023-02-11T09:05:42.088Z,29.80
2023-02-11T09:06:42.121Z,29.90
2023-02-11T09:07:42.052Z,29.20
2023-02-11T09:08:43.711Z,30.60
2023-02-11T09:09:42.039Z,29.80
2023-02-11T09:10:42.010Z,30.40
2023-02-11T09:11:41.988Z,30.20
2023-02-11T09:12:42.009Z,29.40
2023-02-11T09:13:41.986Z,29.00
2023-02-11T09:14:41.952Z,28.00
2023-02-11T09:15:41.918Z,28.10
2023-02-11T09:16:41.978Z,27.60
2023-02-11T09:17:41.899Z,28.60
2023-02-11T09:18:41.916Z,29.10
2023-02-11T09:19:41.889Z,24.90
2023-02-11T09:20:41.903Z,27.60
2023-02-11T09:21:41.915Z,26.50
2023-02-11T09:22:42.790Z,27.10
2023-02-11T09:23:41.834Z,27.90
2023-02-11T09:24:41.841Z,27.70
2023-02-11T09:25:41.783Z,27.40
2023-02-11T09:26:41.818Z,26.90
2023-02-11T09:27:41.771Z,27.10
2023-02-11T09:28:41.791Z,26.70
2023-02-11T09:29:41.744Z,27.60
2023-02-11T09:30:41.861Z,27.80
2023-02-11T09:31:42.004Z,27.00
2023-02-11T09:32:41.748Z,27.50
2023-02-11T09:33:41.740Z,27.70
2023-02-11T09:34:41.704Z,27.40
2023-02-11T09:35:41.661Z,27.20
2023-02-11T09:36:41.702Z,26.70
2023-02-11T09:37:41.682Z,27.90
2023-02-11T09:38:41.731Z,26.90
2023-02-11T09:39:41.623Z,26.40
2023-02-11T09:40:41.620Z,26.10
2023-02-11T09:41:41.616Z,27.40
2023-02-11T09:42:41.594Z,26.60
2023-02-11T09:43:41.568Z,26.50
2023-02-11T09:44:41.638Z,25.00
2023-02-11T09:45:41.524Z,25.50
2023-02-11T09:46:41.554Z,26.10
2023-02-11T09:47:41.530Z,25.60
2023-02-11T09:48:41.523Z,27.10
2023-02-11T09:49:41.501Z,26.10
2023-02-11T09:50:41.480Z,25.70
2023-02-11T09:51:41.469Z,26.40
2023-02-11T09:52:41.452Z,24.70
2023-02-11T09:53:41.443Z,25.60
2023-02-11T09:54:41.474Z,29.30
2023-02-11T09:55:41.429Z,26.20
2023-02-11T09:56:41.444Z,25.40
2023-02-11T09:57:41.393Z,26.10
2023-02-11T09:58:41.430Z,24.90
2023-02-11T09:59:41.334Z,24.10
2023-02-11T10:00:41.393Z,24.80
2023-02-11T10:01:41.365Z,24.20
2023-02-11T10:02:41.328Z,24.90
2023-02-11T10:03:41.306Z,24.00
2023-02-11T10:04:41.416Z,24.60
2023-02-11T10:05:41.289Z,24.10
2023-02-11T10:06:41.298Z,23.70
2023-02-11T10:07:41.275Z,23.90
2023-02-11T10:08:41.272Z,25.10
2023-02-11T10:09:41.213Z,24.70
2023-02-11T10:10:41.220Z,24.40
2023-02-11T10:11:41.188Z,25.70
2023-02-11T10:12:41.191Z,24.20
2023-02-11T10:13:42.643Z,25.20
2023-02-11T10:14:41.300Z,24.00
2023-02-11T10:15:41.191Z,23.30
2023-02-11T10:16:41.158Z,23.90
2023-02-11T10:17:41.100Z,24.10
2023-02-11T10:18:41.130Z,24.20
2023-02-11T10:19:41.097Z,23.80
2023-02-11T10:20:41.127Z,22.90
2023-02-11T10:21:41.070Z,23.90
2023-02-11T10:22:41.082Z,23.70
2023-02-11T10:23:41.062Z,22.40
2023-02-11T10:24:41.191Z,22.00
2023-02-11T10:25:41.581Z,23.60
2023-02-11T10:26:41.024Z,26.10
2023-02-11T10:27:40.972Z,27.30
2023-02-11T10:28:41.119Z,26.80
2023-02-11T10:29:40.941Z,25.10
2023-02-11T10:30:41.018Z,24.70
2023-02-11T10:31:41.043Z,24.80
2023-02-11T10:32:40.961Z,24.60
2023-02-11T10:33:40.894Z,24.00
2023-02-11T10:34:40.885Z,24.90
2023-02-11T10:35:40.874Z,23.30
2023-02-11T10:36:40.871Z,25.10
2023-02-11T10:37:43.539Z,24.10
2023-02-11T10:38:40.866Z,25.30
2023-02-11T10:39:40.815Z,23.90
2023-02-11T10:40:40.870Z,25.10
2023-02-11T10:41:40.794Z,25.30
2023-02-11T10:42:40.818Z,25.10
2023-02-11T10:43:40.763Z,25.10
2023-02-11T10:44:40.783Z,25.80
2023-02-11T10:45:40.749Z,25.50
2023-02-11T10:46:40.845Z,25.90
2023-02-11T10:47:40.702Z,26.30
2023-02-11T10:48:40.710Z,24.70
2023-02-11T10:49:40.670Z,19.50
2023-02-11T10:50:40.718Z,25.30
2023-02-11T10:51:40.712Z,19.60
2023-02-11T10:52:40.651Z,23.70
2023-02-11T10:53:42.270Z,25.70
2023-02-11T10:54:40.634Z,26.50
2023-02-11T10:55:40.624Z,25.50
2023-02-11T10:56:40.604Z,24.50
2023-02-11T10:57:40.577Z,24.50
2023-02-11T10:58:40.568Z,24.50
2023-02-11T10:59:40.587Z,24.50
2023-02-11T11:00:40.574Z,24.10
2023-02-11T11:01:40.567Z,25.90
2023-02-11T11:02:40.528Z,24.40
2023-02-11T11:03:40.490Z,24.00
2023-02-11T11:04:40.553Z,24.90
2023-02-11T11:05:40.465Z,24.10
2023-02-11T11:06:40.473Z,25.00
2023-02-11T11:07:40.458Z,26.60
2023-02-11T11:08:40.468Z,24.60
2023-02-11T11:09:40.422Z,19.70
2023-02-11T11:10:40.443Z,25.90
2023-02-11T11:11:40.372Z,24.60
2023-02-11T11:12:42.170Z,25.60
2023-02-11T11:13:40.365Z,24.40
2023-02-11T11:14:40.395Z,23.90
2023-02-11T11:15:40.348Z,21.90
2023-02-11T11:16:40.400Z,23.70
2023-02-11T11:17:40.310Z,23.80
2023-02-11T11:18:40.344Z,22.70
2023-02-11T11:19:40.277Z,23.00
2023-02-11T11:20:40.287Z,23.10
2023-02-11T11:21:40.266Z,22.40
2023-02-11T11:22:40.269Z,18.20
2023-02-11T11:23:40.216Z,21.60
2023-02-11T11:24:40.256Z,21.10
2023-02-11T11:25:40.203Z,22.20
2023-02-11T11:26:40.270Z,21.30
2023-02-11T11:27:40.167Z,21.40
2023-02-11T11:28:40.282Z,22.40
2023-02-11T11:29:40.150Z,22.00
2023-02-11T11:30:40.189Z,22.20
2023-02-11T11:31:40.216Z,21.40
2023-02-11T11:32:40.138Z,21.90
2023-02-11T11:33:40.092Z,21.60
2023-02-11T11:34:40.134Z,21.30
2023-02-11T11:35:40.068Z,22.10
2023-02-11T11:36:40.113Z,22.40
2023-02-11T11:37:40.055Z,23.00
2023-02-11T11:38:40.178Z,21.50
2023-02-11T11:39:40.007Z,21.80
2023-02-11T11:40:40.034Z,20.30
2023-02-11T11:41:39.982Z,21.80
2023-02-11T11:42:40.011Z,20.70
2023-02-11T11:43:40.002Z,21.80
2023-02-11T11:44:39.983Z,20.80
2023-02-11T11:45:39.930Z,21.10
2023-02-11T11:46:40.063Z,20.70
2023-02-11T11:47:39.918Z,20.20
2023-02-11T11:48:40.033Z,19.70
2023-02-11T11:49:39.870Z,19.70
2023-02-11T11:50:39.907Z,20.70
2023-02-11T11:51:39.848Z,21.10
2023-02-11T11:52:39.945Z,20.50
2023-02-11T11:53:39.828Z,20.10
2023-02-11T11:54:39.841Z,19.40
2023-02-11T11:55:39.820Z,18.60
2023-02-11T11:56:39.813Z,18.30
2023-02-11T11:57:39.762Z,18.20
2023-02-11T11:58:39.843Z,18.50
2023-02-11T11:59:39.749Z,19.60
2023-02-11T12:00:39.782Z,19.90
2023-02-11T12:01:39.742Z,17.20
2023-02-11T12:02:39.799Z,18.10
2023-02-11T12:03:39.700Z,17.90
2023-02-11T12:04:39.723Z,17.70
2023-02-11T12:05:39.678Z,17.40
2023-02-11T12:06:39.683Z,17.50
2023-02-11T12:07:39.639Z,18.00
2023-02-11T12:08:39.722Z,17.50
2023-02-11T12:09:39.645Z,17.80
2023-02-11T12:10:39.639Z,16.90
2023-02-11T12:11:39.587Z,17.00
2023-02-11T12:12:39.594Z,17.60
2023-02-11T12:13:39.598Z,17.60
2023-02-11T12:14:39.582Z,16.90
2023-02-11T12:15:39.571Z,17.50
2023-02-11T12:16:39.590Z,15.80
2023-02-11T12:17:39.502Z,16.70
2023-02-11T12:18:39.596Z,17.30
2023-02-11T12:19:39.532Z,16.80
2023-02-11T12:20:39.504Z,14.30
2023-02-11T12:21:39.456Z,16.30
2023-02-11T12:22:39.449Z,16.60
2023-02-11T12:23:39.476Z,15.30
2023-02-11T12:24:39.541Z,17.80
2023-02-11T12:25:39.425Z,17.30
2023-02-11T12:26:39.404Z,16.70
2023-02-11T12:27:39.374Z,17.60
2023-02-11T12:28:39.608Z,16.40
2023-02-11T12:29:39.374Z,16.40
2023-02-11T12:30:39.419Z,16.90
2023-02-11T12:31:39.395Z,16.10
2023-02-11T12:32:39.325Z,15.30
2023-02-11T12:33:39.350Z,16.80
2023-02-11T12:34:39.283Z,12.40
2023-02-11T12:35:39.286Z,15.80
2023-02-11T12:36:39.283Z,16.80
2023-02-11T12:37:39.275Z,16.30
2023-02-11T12:38:39.434Z,16.40
2023-02-11T12:39:39.274Z,16.80
2023-02-11T12:40:39.201Z,16.30
2023-02-11T12:41:39.259Z,16.10
2023-02-11T12:42:39.180Z,15.60
2023-02-11T12:43:39.227Z,16.50
2023-02-11T12:44:39.200Z,15.80
2023-02-11T12:45:39.261Z,17.00
2023-02-11T12:46:39.144Z,17.60
2023-02-11T12:47:39.158Z,15.40
2023-02-11T12:48:39.102Z,17.70
2023-02-11T12:49:39.162Z,17.10
2023-02-11T12:50:39.063Z,17.50
2023-02-11T12:51:39.141Z,17.50
2023-02-11T12:52:39.062Z,18.10